Wednesday, February 20, 2019, 3:26 PM EST
Back to Local

KWRI, Mcguire Air Force Base

Location: Trenton, NJ, United States Lat: 40.017
Local Time: 3:26 PM EST (20:26 GMT) Lon: -74.6
Time Zone: US/Eastern Elev: 134 ft

Show me the last for .
Show Decoded

2019-02-20 15:11 METAR KWRI 202011Z AUTO 08007KT 1 7/8SM -SN BR BKN006 OVC013 00/M01 A3037 RMK
                 AO2 SLP286 =
2019-02-20 15:06 METAR KWRI 202006Z 08005KT 2SM -SN BR BKN006 OVC013 00/M01 A3037 RMK AO2A TWR
                 VIS 1 1/2 BKN V OVC SLP286 =
2019-02-20 15:01 METAR KWRI 202001Z 07005KT 1 3/4SM -SN BR BKN006 OVC013 00/M01 A3037 RMK TWR VIS
                 1 1/2 BKN V OVC CIG 002 RWY18 SLP286 =
2019-02-20 14:37 METAR KWRI 201937Z AUTO 08006KT 1 7/8SM -SN BR BKN006 OVC010 00/M02 A3038 RMK
                 AO2 SLP289 =
2019-02-20 14:32 METAR KWRI 201932Z COR 09005KT 1 3/4SM -SN BR BKN007 OVC010 00/M02 A3038 RMK
                 AO2A TWR VIS 1/4 SLP289 COR 1948 =
2019-02-20 14:21 METAR KWRI 201921Z 09007KT 1 3/8SM -SN BR BKN007 OVC013 M01/M02 A3038 RMK AO2A
                 TWR VIS 1/4 CIG 007V014 BKN V SCT SLP289 =
2019-02-20 14:11 METAR KWRI 201911Z 09005KT 1 5/8SM -SN BR SCT007 OVC014 M01/M02 A3039 RMK AO2A
                 TWR VIS 1/4 PRESFR SLP292 =
2019-02-20 14:01 METAR KWRI 201901Z 11003KT 1 3/8SM -SN BR FEW007 OVC016 M01/M03 A3041 RMK AO2A
                 TWR VIS 1/4 SLP299 =
2019-02-20 13:56 METAR KWRI 201856Z 10005KT 1 1/4SM -SN BR FEW007 OVC018 M01/M03 A3041 RMK AO2A
                 TWR VIS 1/4 VIS 1 1/4V1 3/4 CIG 016 RWY18 SLP299 P0000 T10101027 =
2019-02-20 13:51 METAR KWRI 201851Z 10004KT 1 5/8SM -SN BR FEW007 OVC018 M01/M03 A3041 RMK AO2A
                 TWR VIS 1/4 SLP299 =
2019-02-20 13:46 METAR KWRI 201846Z 11004KT 1 3/4SM -SN BR FEW007 M01/M03 A3041 RMK AO2A TWR VIS
                 1/4 SLP299 =
2019-02-20 11:56 METAR KWRI 201656Z 00000KT 5/8SM R06/4000FT -SN BR VV008 M03/M04 A3052 RMK AO2A
                 TWR VIS 1/4 CIG 008V010 CIG 001 RWY18 CIG 007 RWY24 PRESFR SLP336 P0003
                 T10311044 =
2019-02-20 11:41 METAR KWRI 201641Z 00000KT 1/2SM R06/3500V4000FT SN FZFG VV010 M03/M05 A3054 RMK
                 AO2A TWR VIS 1/4 CIG 010V013 CIG 001 RWY18 SLP343 =
2019-02-20 11:38 METAR KWRI 201638Z 00000KT 1/2SM R06/3500V4000FT SN FZFG VV012 M03/M05 A3055 RMK
                 TWR VIS 1/4 CIG 010 RWY18 CIG 011 RWY24 SLP347 =
2019-02-20 11:36 METAR KWRI 201636Z 00000KT 5/8SM R06/3500V5000FT SN BR VV012 M03/M05 A3055 RMK
                 AO2A SLP347 =
2019-02-20 11:31 METAR KWRI 201631Z 00000KT 7/8SM R06/3500V6000FT -SN BR VV013 M03/M05 A3055 RMK
                 AO2A CIG 012 RWY24 SLP347 =
2019-02-20 11:26 METAR KWRI 201626Z 00000KT 1SM R06/5000V6000FT -SN BR VV015 M03/M05 A3055 RMK
                 AO2A VIS 1V1 5/8 CIG 014 RWY24 SLP347 =
2019-02-20 11:21 METAR KWRI 201621Z 00000KT 1 1/4SM -SN BR OVC014 M03/M05 A3055 RMK AO2A VIS 1
                 1/4V1 7/8 PRESFR SLP347 =
2019-02-20 11:06 METAR KWRI 201606Z 00000KT 1 5/8SM -SN BR OVC014 M03/M05 A3057 RMK AO2A VIS 1
                 1/8V1 5/8 CIG 011 RWY24 SLP353 =
2019-02-20 11:01 METAR KWRI 201601Z 00000KT 1 1/4SM -SN BR OVC011 M03/M05 A3056 RMK AO2A CIG 010
                 RWY18 SLP350 =
2019-02-20 10:56 METAR KWRI 201556Z 00000KT 1 1/8SM -SN OVC011 M03/M05 A3056 RMK AO2A SNB16 CIG
                 011V015 CIG 002 RWY18 SLP350 P0000 T10291054 =
2019-02-20 10:51 METAR KWRI 201551Z 00000KT 7/8SM R06/5000VP6000FT -SN VV013 M03/M06 A3056 RMK
                 AO2A VIS 7/8V1 3/8 SNB16 CIG 010 RWY18 CIG 012 RWY24 SLP350 =
2019-02-20 10:46 METAR KWRI 201546Z 00000KT 1SM R06/4500VP6000FT -SN VV015 M02/M06 A3056 RMK AO2A
                 VIS 1V2 3/4 SNB16 CIG 014 RWY18 CIG 014 RWY24 SLP350 =
2019-02-20 10:41 METAR KWRI 201541Z 03003KT 1 1/2SM -SN OVC015 M02/M07 A3055 RMK AO2A VIS 1 1/2V4
                 SNB16 CIG 014 RWY18 CIG 014 RWY24 SLP347 =
2019-02-20 10:35 METAR KWRI 201535Z 00000KT 3SM -SN BKN017 M02/M07 A3055 RMK AO2A VIS 1 3/4 RWY18
                 VIS 2 1/2 RWY36 SNB16 CIG 015 RWY18 CIG 015 RWY24 PRESFR SLP347 =
2019-02-20 10:26 METAR KWRI 201526Z 00000KT 8SM -SN BKN017 M01/M10 A3057 RMK AO2A SNB16 CIG 015
                 RWY18 SLP353 =
2019-02-20 10:16 METAR KWRI 201516Z COR 00000KT 10SM -SN CLR M01/M11 A3057 RMK AO2A SNB16 SLP353
                 COR 1521 =
2019-02-20 09:56 METAR KWRI 201456Z AUTO 00000KT 10SM CLR M01/M11 A3056 RMK AO2 SLP350 T10151111
                 50009 =
2019-02-20 08:56 METAR KWRI 201356Z AUTO 08003KT 10SM CLR M02/M11 A3057 RMK AO2 SLP353 T10171113
                 =
2019-02-20 07:56 METAR KWRI 201256Z AUTO 07007KT 10SM CLR M02/M12 A3055 RMK AO2 SLP347 T10191117
                 =
2019-02-20 06:56 METAR KWRI 201156Z AUTO 06007KT 10SM FEW110 M02/M12 A3053 RMK AO2 SLP340
                 T10211117 11016 21027 57014 =
2019-02-20 05:56 METAR KWRI 201056Z AUTO 04004KT 10SM CLR M02/M08 A3054 RMK AO2 SLP343 T10231084
                 =
2019-02-20 04:56 METAR KWRI 200956Z AUTO 05003KT 10SM CLR M02/M08 A3056 RMK AO2 SLP350 T10251084
                 =
2019-02-20 03:56 METAR KWRI 200856Z AUTO 34003KT 10SM CLR M03/M09 A3057 RMK AO2 SLP353 T10271086
                 58001 =
2019-02-20 02:56 METAR KWRI 200756Z AUTO 33003KT 10SM CLR M02/M10 A3059 RMK AO2 SLP360 T10211097
                 =
2019-02-20 01:56 METAR KWRI 200656Z AUTO 00000KT 10SM CLR M02/M11 A3059 RMK AO2 SLP360 T10221112
                 =
2019-02-20 00:56 METAR KWRI 200556Z AUTO 33004KT 10SM CLR M02/M11 A3058 RMK AO2 SLP357 T10191112
                 11005 21021 53002 =
2019-02-19 23:56 METAR KWRI 200456Z AUTO 00000KT 10SM FEW210 M02/M12 A3057 RMK AO2 SLP353
                 T10171118 400251051 =
2019-02-19 22:56 METAR KWRI 200356Z AUTO 35007KT 10SM SCT210 M02/M11 A3055 RMK AO2 SLPNO
                 T10171110 =
2019-02-19 21:56 METAR KWRI 200256Z AUTO 30004KT 10SM CLR M01/M11 A3057 RMK AO2 SLP353 T10131109
                 53000 =
2019-02-19 20:56 METAR KWRI 200156Z AUTO 30003KT 10SM CLR M01/M11 A3057 RMK AO2 SLP353 T10091114
                 =
2019-02-19 19:56 METAR KWRI 200056Z AUTO 30003KT 10SM CLR M01/M11 A3057 RMK AO2 SLP353 T10081113
                 =
2019-02-19 18:56 METAR KWRI 192356Z AUTO 29004KT 10SM CLR M01/M12 A3057 RMK AO2 SLP354 T10081118
                 10025 21010 53015 =
2019-02-19 17:56 METAR KWRI 192256Z AUTO 30007KT 10SM CLR 00/M12 A3056 RMK AO2 SLP350 T10021125 =
2019-02-19 16:56 METAR KWRI 192156Z AUTO 30007KT 10SM CLR 01/M13 A3052 RMK AO2 SLP336 T00121126 =
2019-02-19 15:56 METAR KWRI 192056Z AUTO 31009KT 10SM CLR 02/M13 A3052 RMK AO2 SLP336 T00191131
                 56008 =

Support USWX by starting your Amazon purchase here.